createdAt,value
2023-01-08T00:00:04.322Z,0.66
2023-01-08T00:01:04.335Z,0.75
2023-01-08T00:02:04.290Z,0.80
2023-01-08T00:03:04.434Z,0.84
2023-01-08T00:04:04.340Z,0.84
2023-01-08T00:05:04.235Z,0.88
2023-01-08T00:06:04.259Z,0.90
2023-01-08T00:07:04.238Z,0.86
2023-01-08T00:08:04.334Z,0.90
2023-01-08T00:09:04.238Z,0.84
2023-01-08T00:10:04.186Z,0.78
2023-01-08T00:11:04.164Z,0.93
2023-01-08T00:12:04.166Z,0.80
2023-01-08T00:13:04.149Z,0.88
2023-01-08T00:14:04.149Z,0.86
2023-01-08T00:15:04.164Z,0.86
2023-01-08T00:16:04.129Z,0.78
2023-01-08T00:17:04.105Z,0.72
2023-01-08T00:18:05.940Z,0.68
2023-01-08T00:19:04.081Z,0.62
2023-01-08T00:20:04.107Z,0.60
2023-01-08T00:21:04.097Z,0.53
2023-01-08T00:22:04.055Z,0.41
2023-01-08T00:23:04.040Z,0.49
2023-01-08T00:24:04.134Z,0.55
2023-01-08T00:25:04.020Z,0.55
2023-01-08T00:26:04.039Z,0.51
2023-01-08T00:27:04.073Z,0.62
2023-01-08T00:28:03.990Z,0.51
2023-01-08T00:29:04.028Z,0.53
2023-01-08T00:30:03.991Z,0.39
2023-01-08T00:31:04.232Z,0.41
2023-01-08T00:32:03.964Z,0.38
2023-01-08T00:33:03.927Z,0.26
2023-01-08T00:34:03.937Z,0.23
2023-01-08T00:35:03.924Z,0.28
2023-01-08T00:36:03.905Z,0.29
2023-01-08T00:37:03.904Z,0.29
2023-01-08T00:38:03.872Z,0.23
2023-01-08T00:39:03.853Z,0.20
2023-01-08T00:40:03.989Z,0.23
2023-01-08T00:41:03.881Z,0.28
2023-01-08T00:42:03.834Z,0.18
2023-01-08T00:43:03.873Z,0.18
2023-01-08T00:44:03.810Z,0.13
2023-01-08T00:45:03.790Z,0.07
2023-01-08T00:46:03.886Z,0.11
2023-01-08T00:47:03.805Z,0.11
2023-01-08T00:48:03.773Z,0.17
2023-01-08T00:49:03.764Z,0.08
2023-01-08T00:50:03.770Z,0.14
2023-01-08T00:51:03.723Z,0.07
2023-01-08T00:52:04.458Z,0.10
2023-01-08T00:53:03.736Z,0.03
2023-01-08T00:54:03.717Z,-0.01
2023-01-08T00:55:03.716Z,-0.04
2023-01-08T00:56:03.776Z,-0.14
2023-01-08T00:57:03.681Z,-0.01
2023-01-08T00:58:03.667Z,0.07
2023-01-08T00:59:03.660Z,0.11
2023-01-08T01:00:03.647Z,0.08
2023-01-08T01:01:03.731Z,0.00
2023-01-08T01:02:03.792Z,-0.04
2023-01-08T01:03:04.172Z,0.00
2023-01-08T01:04:03.688Z,-0.04
2023-01-08T01:05:03.589Z,-0.03
2023-01-08T01:06:03.638Z,-0.08
2023-01-08T01:07:03.558Z,-0.08
2023-01-08T01:08:03.585Z,-0.01
2023-01-08T01:09:03.530Z,0.04
2023-01-08T01:10:03.520Z,0.10
2023-01-08T01:11:03.525Z,0.02
2023-01-08T01:12:03.611Z,0.23
2023-01-08T01:13:03.484Z,0.24
2023-01-08T01:14:03.525Z,0.18
2023-01-08T01:15:03.472Z,0.32
2023-01-08T01:16:03.484Z,0.41
2023-01-08T01:17:03.523Z,0.29
2023-01-08T01:18:03.451Z,0.28
2023-01-08T01:19:03.422Z,0.20
2023-01-08T01:20:03.402Z,0.23
2023-01-08T01:21:03.418Z,0.08
2023-01-08T01:22:03.423Z,0.18
2023-01-08T01:23:03.400Z,0.08
2023-01-08T01:24:03.365Z,0.11
2023-01-08T01:25:03.355Z,0.04
2023-01-08T01:26:03.350Z,0.07
2023-01-08T01:27:03.328Z,0.00
2023-01-08T01:28:03.476Z,0.00
2023-01-08T01:29:03.333Z,0.04
2023-01-08T01:30:03.295Z,-0.03
2023-01-08T01:31:03.359Z,-0.07
2023-01-08T01:32:03.296Z,-0.10
2023-01-08T01:33:03.265Z,-0.05
2023-01-08T01:34:03.266Z,-0.08
2023-01-08T01:35:03.273Z,-0.15
2023-01-08T01:36:03.220Z,-0.15
2023-01-08T01:37:03.227Z,-0.16
2023-01-08T01:38:03.216Z,-0.21
2023-01-08T01:39:03.216Z,-0.18
2023-01-08T01:40:03.204Z,-0.15
2023-01-08T01:41:03.167Z,-0.19
2023-01-08T01:42:03.194Z,-0.16
2023-01-08T01:43:03.154Z,-0.14
2023-01-08T01:44:03.267Z,-0.19
2023-01-08T01:45:03.134Z,-0.16
2023-01-08T01:46:03.239Z,-0.19
2023-01-08T01:47:03.158Z,-0.14
2023-01-08T01:48:03.099Z,-0.08
2023-01-08T01:49:03.091Z,-0.08
2023-01-08T01:50:03.103Z,-0.10
2023-01-08T01:51:03.094Z,0.02
2023-01-08T01:52:03.103Z,-0.11
2023-01-08T01:53:03.045Z,-0.05
2023-01-08T01:54:03.024Z,0.08
2023-01-08T01:55:03.028Z,0.11
2023-01-08T01:56:03.007Z,0.04
2023-01-08T01:57:03.063Z,0.11
2023-01-08T01:58:03.023Z,0.14
2023-01-08T01:59:03.004Z,0.08
2023-01-08T02:00:03.134Z,0.13
2023-01-08T02:01:03.055Z,0.08
2023-01-08T02:02:03.105Z,-0.04
2023-01-08T02:03:02.967Z,0.03
2023-01-08T02:04:03.040Z,-0.05
2023-01-08T02:05:02.900Z,0.00
2023-01-08T02:06:02.920Z,-0.04
2023-01-08T02:07:02.886Z,-0.11
2023-01-08T02:08:02.932Z,-0.14
2023-01-08T02:09:02.918Z,-0.05
2023-01-08T02:10:02.841Z,0.04
2023-01-08T02:11:02.846Z,0.08
2023-01-08T02:12:02.848Z,0.04
2023-01-08T02:13:02.825Z,0.03
2023-01-08T02:14:02.830Z,-0.01
2023-01-08T02:15:02.830Z,-0.10
2023-01-08T02:16:02.891Z,-0.11
2023-01-08T02:17:02.935Z,-0.19
2023-01-08T02:18:02.763Z,-0.14
2023-01-08T02:19:02.755Z,-0.15
2023-01-08T02:20:02.759Z,-0.25
2023-01-08T02:21:02.759Z,-0.34
2023-01-08T02:22:02.791Z,-0.34
2023-01-08T02:23:02.729Z,-0.25
2023-01-08T02:24:02.691Z,-0.15
2023-01-08T02:25:02.692Z,-0.18
2023-01-08T02:26:02.690Z,-0.16
2023-01-08T02:27:02.683Z,-0.16
2023-01-08T02:28:02.717Z,-0.10
2023-01-08T02:29:02.665Z,-0.08
2023-01-08T02:30:02.630Z,-0.14
2023-01-08T02:31:02.775Z,-0.19
2023-01-08T02:32:02.712Z,-0.15
2023-01-08T02:33:02.650Z,-0.28
2023-01-08T02:34:02.606Z,-0.40
2023-01-08T02:35:02.611Z,-0.34
2023-01-08T02:36:02.602Z,-0.26
2023-01-08T02:37:02.564Z,-0.19
2023-01-08T02:38:02.531Z,-0.21
2023-01-08T02:39:02.529Z,-0.25
2023-01-08T02:40:02.517Z,-0.25
2023-01-08T02:41:02.542Z,-0.15
2023-01-08T02:42:02.515Z,-0.16
2023-01-08T02:43:02.497Z,-0.14
2023-01-08T02:44:02.473Z,-0.05
2023-01-08T02:45:02.490Z,-0.15
2023-01-08T02:46:02.547Z,-0.16
2023-01-08T02:47:02.454Z,-0.11
2023-01-08T02:48:02.581Z,-0.21
2023-01-08T02:49:02.454Z,-0.34
2023-01-08T02:50:02.427Z,-0.23
2023-01-08T02:51:02.412Z,-0.22
2023-01-08T02:52:02.391Z,-0.22
2023-01-08T02:53:02.387Z,-0.42
2023-01-08T02:54:02.428Z,-0.39
2023-01-08T02:55:02.366Z,-0.46
2023-01-08T02:56:02.380Z,-0.46
2023-01-08T02:57:02.336Z,-0.42
2023-01-08T02:58:02.316Z,-0.51
2023-01-08T02:59:02.348Z,-0.57
2023-01-08T03:00:02.375Z,-0.42
2023-01-08T03:01:02.386Z,-0.42
2023-01-08T03:02:02.435Z,-0.31
2023-01-08T03:03:02.297Z,-0.34
2023-01-08T03:04:02.498Z,-0.28
2023-01-08T03:05:02.277Z,-0.22
2023-01-08T03:06:02.228Z,-0.16
2023-01-08T03:07:02.217Z,-0.11
2023-01-08T03:08:02.246Z,-0.08
2023-01-08T03:09:02.235Z,-0.05
2023-01-08T03:10:02.183Z,-0.08
2023-01-08T03:11:02.183Z,-0.11
2023-01-08T03:12:02.193Z,-0.01
2023-01-08T03:13:02.216Z,-0.01
2023-01-08T03:14:02.152Z,-0.01
2023-01-08T03:15:02.127Z,-0.07
2023-01-08T03:16:02.134Z,-0.03
2023-01-08T03:17:02.209Z,-0.04
2023-01-08T03:18:02.688Z,-0.11
2023-01-08T03:19:02.109Z,-0.01
2023-01-08T03:20:02.247Z,-0.05
2023-01-08T03:21:02.069Z,-0.14
2023-01-08T03:22:02.067Z,0.02
2023-01-08T03:23:02.032Z,-0.05
2023-01-08T03:24:02.028Z,-0.07
2023-01-08T03:25:02.069Z,-0.05
2023-01-08T03:26:02.032Z,0.07
2023-01-08T03:27:02.001Z,0.04
2023-01-08T03:28:01.999Z,-0.19
2023-01-08T03:29:02.010Z,-0.15
2023-01-08T03:30:01.970Z,-0.15
2023-01-08T03:31:02.069Z,-0.14
2023-01-08T03:32:01.973Z,-0.19
2023-01-08T03:33:01.959Z,-0.14
2023-01-08T03:34:01.921Z,-0.08
2023-01-08T03:35:01.942Z,-0.15
2023-01-08T03:36:02.030Z,-0.15
2023-01-08T03:37:01.885Z,-0.22
2023-01-08T03:38:01.914Z,-0.14
2023-01-08T03:39:01.898Z,-0.14
2023-01-08T03:40:01.851Z,-0.18
2023-01-08T03:41:01.838Z,-0.23
2023-01-08T03:42:01.825Z,-0.29
2023-01-08T03:43:01.831Z,-0.36
2023-01-08T03:44:01.846Z,-0.33
2023-01-08T03:45:01.821Z,-0.33
2023-01-08T03:46:01.894Z,-0.29
2023-01-08T03:47:01.794Z,-0.21
2023-01-08T03:48:01.765Z,-0.33
2023-01-08T03:49:01.745Z,-0.31
2023-01-08T03:50:01.785Z,-0.43
2023-01-08T03:51:01.733Z,-0.51
2023-01-08T03:52:01.846Z,-0.51
2023-01-08T03:53:01.716Z,-0.58
2023-01-08T03:54:01.724Z,-0.55
2023-01-08T03:55:01.713Z,-0.61
2023-01-08T03:56:01.719Z,-0.62
2023-01-08T03:57:01.675Z,-0.70
2023-01-08T03:58:01.663Z,-0.72
2023-01-08T03:59:01.638Z,-0.85
2023-01-08T04:00:01.642Z,-0.75
2023-01-08T04:01:01.673Z,-0.76
2023-01-08T04:02:01.793Z,-0.75
2023-01-08T04:03:03.202Z,-0.67
2023-01-08T04:04:01.643Z,-0.67
2023-01-08T04:05:01.597Z,-0.67
2023-01-08T04:06:01.570Z,-0.61
2023-01-08T04:07:01.562Z,-0.55
2023-01-08T04:08:01.555Z,-0.64
2023-01-08T04:09:01.588Z,-0.65
2023-01-08T04:10:01.530Z,-0.61
2023-01-08T04:11:01.543Z,-0.64
2023-01-08T04:12:01.497Z,-0.64
2023-01-08T04:13:01.496Z,-0.61
2023-01-08T04:14:01.488Z,-0.64
2023-01-08T04:15:01.501Z,-0.62
2023-01-08T04:16:01.490Z,-0.58
2023-01-08T04:17:01.478Z,-0.62
2023-01-08T04:18:01.456Z,-0.62
2023-01-08T04:19:01.439Z,-0.51
2023-01-08T04:20:01.450Z,-0.51
2023-01-08T04:21:01.389Z,-0.44
2023-01-08T04:22:01.383Z,-0.42
2023-01-08T04:23:01.376Z,-0.37
2023-01-08T04:24:01.517Z,-0.34
2023-01-08T04:25:01.361Z,-0.31
2023-01-08T04:26:01.335Z,-0.31
2023-01-08T04:27:01.328Z,-0.19
2023-01-08T04:28:01.326Z,-0.18
2023-01-08T04:29:01.335Z,-0.21
2023-01-08T04:30:01.322Z,-0.29
2023-01-08T04:31:01.396Z,-0.26
2023-01-08T04:32:01.276Z,-0.23
2023-01-08T04:33:01.292Z,-0.18
2023-01-08T04:34:01.259Z,-0.25
2023-01-08T04:35:01.272Z,-0.36
2023-01-08T04:36:01.284Z,-0.36
2023-01-08T04:37:01.211Z,-0.36
2023-01-08T04:38:01.214Z,-0.43
2023-01-08T04:39:01.244Z,-0.40
2023-01-08T04:40:01.309Z,-0.42
2023-01-08T04:41:01.225Z,-0.43
2023-01-08T04:42:01.188Z,-0.47
2023-01-08T04:43:01.147Z,-0.47
2023-01-08T04:44:01.136Z,-0.54
2023-01-08T04:45:01.162Z,-0.51
2023-01-08T04:46:01.224Z,-0.49
2023-01-08T04:47:01.154Z,-0.55
2023-01-08T04:48:01.173Z,-0.62
2023-01-08T04:49:01.084Z,-0.64
2023-01-08T04:50:01.070Z,-0.55
2023-01-08T04:51:01.058Z,-0.55
2023-01-08T04:52:01.049Z,-0.52
2023-01-08T04:53:01.075Z,-0.67
2023-01-08T04:54:01.067Z,-0.69
2023-01-08T04:55:01.027Z,-0.69
2023-01-08T04:56:01.146Z,-0.67
2023-01-08T04:57:01.039Z,-0.60
2023-01-08T04:58:01.000Z,-0.58
2023-01-08T04:59:00.993Z,-0.55
2023-01-08T05:00:00.959Z,-0.46
2023-01-08T05:01:00.955Z,-0.49
2023-01-08T05:02:01.123Z,-0.46
2023-01-08T05:03:00.999Z,-0.46
2023-01-08T05:04:00.954Z,-0.62
2023-01-08T05:05:00.924Z,-0.62
2023-01-08T05:06:00.891Z,-0.60
2023-01-08T05:07:00.934Z,-0.61
2023-01-08T05:08:00.873Z,-0.62
2023-01-08T05:09:00.894Z,-0.67
2023-01-08T05:10:00.863Z,-0.55
2023-01-08T05:11:00.881Z,-0.60
2023-01-08T05:12:00.851Z,-0.60
2023-01-08T05:13:00.827Z,-0.60
2023-01-08T05:14:00.812Z,-0.55
2023-01-08T05:15:00.801Z,-0.61
2023-01-08T05:16:01.014Z,-0.58
2023-01-08T05:17:00.814Z,-0.51
2023-01-08T05:18:00.836Z,-0.58
2023-01-08T05:19:00.803Z,-0.67
2023-01-08T05:20:00.768Z,-0.73
2023-01-08T05:21:00.743Z,-0.80
2023-01-08T05:22:00.730Z,-0.70
2023-01-08T05:23:00.706Z,-0.82
2023-01-08T05:24:00.726Z,-0.78
2023-01-08T05:25:00.709Z,-0.76
2023-01-08T05:26:00.718Z,-0.78
2023-01-08T05:27:00.684Z,-0.70
2023-01-08T05:28:00.764Z,-0.85
2023-01-08T05:29:00.640Z,-0.79
2023-01-08T05:30:00.632Z,-0.83
2023-01-08T05:31:00.736Z,-0.83
2023-01-08T05:32:00.654Z,-0.82
2023-01-08T05:33:00.675Z,-0.75
2023-01-08T05:34:00.604Z,-0.76
2023-01-08T05:35:00.594Z,-0.69
2023-01-08T05:36:00.619Z,-0.62
2023-01-08T05:37:00.653Z,-0.64
2023-01-08T05:38:00.550Z,-0.58
2023-01-08T05:39:00.545Z,-0.54
2023-01-08T05:40:00.522Z,-0.54
2023-01-08T05:41:00.506Z,-0.52
2023-01-08T05:42:00.498Z,-0.58
2023-01-08T05:43:00.518Z,-0.57
2023-01-08T05:44:00.606Z,-0.58
2023-01-08T05:45:00.504Z,-0.65
2023-01-08T05:46:00.518Z,-0.72
2023-01-08T05:47:00.437Z,-0.73
2023-01-08T05:48:00.431Z,-0.76
2023-01-08T05:49:00.453Z,-0.83
2023-01-08T05:50:00.498Z,-0.89
2023-01-08T05:51:00.465Z,-0.83
2023-01-08T05:52:00.424Z,-0.85
2023-01-08T05:53:00.379Z,-0.91
2023-01-08T05:54:00.371Z,-0.94
2023-01-08T05:55:00.401Z,-0.82
2023-01-08T05:56:00.375Z,-0.79
2023-01-08T05:57:00.385Z,-0.79
2023-01-08T05:58:00.329Z,-0.79
2023-01-08T05:59:00.307Z,-0.83
2023-01-08T06:00:00.428Z,-0.97
2023-01-08T06:01:00.340Z,-0.98
2023-01-08T06:02:00.291Z,-1.05
2023-01-08T06:03:00.372Z,-1.04
2023-01-08T06:04:00.344Z,-0.97
2023-01-08T06:05:00.293Z,-1.01
2023-01-08T06:06:00.251Z,-0.86
2023-01-08T06:07:00.242Z,-0.83
2023-01-08T06:08:00.252Z,-0.92
2023-01-08T06:09:00.233Z,-0.85
2023-01-08T06:10:00.183Z,-0.78
2023-01-08T06:11:00.181Z,-0.73
2023-01-08T06:12:00.187Z,-0.83
2023-01-08T06:13:00.162Z,-0.73
2023-01-08T06:14:00.189Z,-0.67
2023-01-08T06:15:00.128Z,-0.58
2023-01-08T06:16:00.365Z,-0.62
2023-01-08T06:17:00.122Z,-0.67
2023-01-08T06:18:00.122Z,-0.57
2023-01-08T06:19:00.147Z,-0.40
2023-01-08T06:20:00.108Z,-0.29
2023-01-08T06:21:00.083Z,-0.29
2023-01-08T06:22:00.096Z,-0.15
2023-01-08T06:23:00.086Z,-0.25
2023-01-08T06:24:00.101Z,-0.10
2023-01-08T06:25:00.074Z,-0.08
2023-01-08T06:26:00.010Z,-0.01
2023-01-08T06:26:59.994Z,0.07
2023-01-08T06:27:59.988Z,-0.10
2023-01-08T06:29:00.020Z,-0.07
2023-01-08T06:29:59.993Z,0.07
2023-01-08T06:31:00.021Z,-0.07
2023-01-08T06:32:00.096Z,-0.14
2023-01-08T06:32:59.936Z,-0.16
2023-01-08T06:33:59.942Z,0.00
2023-01-08T06:34:59.957Z,-0.03
2023-01-08T06:35:59.928Z,-0.04
2023-01-08T06:36:59.955Z,0.02
2023-01-08T06:37:59.897Z,-0.01
2023-01-08T06:38:59.876Z,-0.01
2023-01-08T06:39:59.889Z,0.00
2023-01-08T06:40:59.862Z,0.03
2023-01-08T06:41:59.851Z,0.03
2023-01-08T06:42:59.817Z,0.14
2023-01-08T06:43:59.806Z,0.11
2023-01-08T06:44:59.843Z,0.14
2023-01-08T06:45:59.819Z,0.10
2023-01-08T06:46:59.802Z,0.15
2023-01-08T06:47:59.887Z,0.08
2023-01-08T06:48:59.751Z,0.20
2023-01-08T06:49:59.750Z,0.18
2023-01-08T06:50:59.780Z,0.13
2023-01-08T06:51:59.765Z,0.08
2023-01-08T06:52:59.747Z,0.08
2023-01-08T06:53:59.698Z,0.07
2023-01-08T06:54:59.685Z,0.14
2023-01-08T06:55:59.685Z,0.04
2023-01-08T06:56:59.702Z,0.11
2023-01-08T06:57:59.698Z,0.07
2023-01-08T06:59:07.619Z,0.10
2023-01-08T06:59:59.631Z,0.11
2023-01-08T07:00:59.618Z,0.18
2023-01-08T07:01:59.776Z,0.20
2023-01-08T07:02:59.757Z,0.23
2023-01-08T07:03:59.649Z,0.24
2023-01-08T07:04:59.575Z,0.21
2023-01-08T07:05:59.630Z,0.23
2023-01-08T07:06:59.553Z,0.17
2023-01-08T07:07:59.577Z,0.18
2023-01-08T07:08:59.557Z,0.26
2023-01-08T07:09:59.534Z,0.18
2023-01-08T07:10:59.539Z,0.13
2023-01-08T07:11:59.514Z,0.20
2023-01-08T07:12:59.489Z,0.21
2023-01-08T07:13:59.529Z,0.28
2023-01-08T07:14:59.504Z,0.24
2023-01-08T07:15:59.499Z,0.33
2023-01-08T07:16:59.442Z,0.35
2023-01-08T07:17:59.429Z,0.35
2023-01-08T07:18:59.426Z,0.31
2023-01-08T07:19:59.562Z,0.35
2023-01-08T07:20:59.421Z,0.41
2023-01-08T07:21:59.394Z,0.44
2023-01-08T07:22:59.375Z,0.41
2023-01-08T07:23:59.475Z,0.42
2023-01-08T07:24:59.367Z,0.47
2023-01-08T07:25:59.362Z,0.50
2023-01-08T07:26:59.343Z,0.51
2023-01-08T07:27:59.427Z,0.42
2023-01-08T07:28:59.305Z,0.47
2023-01-08T07:29:59.296Z,0.44
2023-01-08T07:30:59.335Z,0.50
2023-01-08T07:31:59.291Z,0.46
2023-01-08T07:32:59.285Z,0.47
2023-01-08T07:33:59.308Z,0.50
2023-01-08T07:34:59.244Z,0.57
2023-01-08T07:35:59.352Z,0.50
2023-01-08T07:36:59.252Z,0.55
2023-01-08T07:37:59.220Z,0.50
2023-01-08T07:38:59.227Z,0.49
2023-01-08T07:39:59.200Z,0.46
2023-01-08T07:40:59.226Z,0.36
2023-01-08T07:41:59.187Z,0.38
2023-01-08T07:42:59.168Z,0.33
2023-01-08T07:43:59.146Z,0.42
2023-01-08T07:44:59.130Z,0.44
2023-01-08T07:45:59.160Z,0.39
2023-01-08T07:46:59.132Z,0.42
2023-01-08T07:47:59.240Z,0.46
2023-01-08T07:48:59.113Z,0.58
2023-01-08T07:49:59.086Z,0.61
2023-01-08T07:50:59.096Z,0.68
2023-01-08T07:51:59.171Z,0.72
2023-01-08T07:52:59.049Z,0.69
2023-01-08T07:53:59.058Z,0.76
2023-01-08T07:54:59.042Z,0.80
2023-01-08T07:55:59.059Z,0.84
2023-01-08T07:56:58.998Z,0.84
2023-01-08T07:57:58.989Z,0.78
2023-01-08T07:58:58.999Z,0.73
2023-01-08T07:59:59.014Z,0.79
2023-01-08T08:00:59.459Z,0.83
2023-01-08T08:01:59.190Z,0.83
2023-01-08T08:02:59.123Z,0.96
2023-01-08T08:03:58.923Z,0.86
2023-01-08T08:04:58.922Z,0.80
2023-01-08T08:05:58.935Z,0.91
2023-01-08T08:06:58.914Z,0.88
2023-01-08T08:07:59.006Z,0.90
2023-01-08T08:08:58.874Z,0.93
2023-01-08T08:09:58.887Z,0.91
2023-01-08T08:10:58.859Z,0.91
2023-01-08T08:11:58.856Z,0.96
2023-01-08T08:12:58.858Z,1.04
2023-01-08T08:13:58.874Z,0.96
2023-01-08T08:14:58.825Z,1.04
2023-01-08T08:15:58.806Z,1.05
2023-01-08T08:16:58.808Z,1.04
2023-01-08T08:17:58.795Z,1.08
2023-01-08T08:18:58.810Z,1.00
2023-01-08T08:19:58.798Z,0.93
2023-01-08T08:20:58.731Z,0.97
2023-01-08T08:21:58.734Z,1.04
2023-01-08T08:22:58.731Z,0.96
2023-01-08T08:23:58.732Z,1.02
2023-01-08T08:24:58.696Z,1.00
2023-01-08T08:25:58.727Z,1.05
2023-01-08T08:26:58.670Z,1.06
2023-01-08T08:27:58.685Z,1.20
2023-01-08T08:28:58.673Z,1.23
2023-01-08T08:29:58.657Z,1.24
2023-01-08T08:30:58.674Z,1.26
2023-01-08T08:31:58.611Z,1.34
2023-01-08T08:32:58.619Z,1.29
2023-01-08T08:33:58.649Z,1.33
2023-01-08T08:34:58.614Z,1.33
2023-01-08T08:35:58.595Z,1.33
2023-01-08T08:36:58.554Z,1.44
2023-01-08T08:37:58.552Z,1.29
2023-01-08T08:38:58.623Z,1.42
2023-01-08T08:39:58.649Z,1.48
2023-01-08T08:40:58.548Z,1.51
2023-01-08T08:41:58.546Z,1.50
2023-01-08T08:42:58.488Z,1.42
2023-01-08T08:43:58.481Z,1.47
2023-01-08T08:44:58.489Z,1.44
2023-01-08T08:45:58.494Z,1.44
2023-01-08T08:46:58.525Z,1.52
2023-01-08T08:47:58.436Z,1.50
2023-01-08T08:48:58.441Z,1.55
2023-01-08T08:49:58.415Z,1.62
2023-01-08T08:50:58.429Z,1.62
2023-01-08T08:51:58.435Z,1.63
2023-01-08T08:52:58.415Z,1.65
2023-01-08T08:53:58.370Z,1.65
2023-01-08T08:54:58.376Z,1.62
2023-01-08T08:55:58.467Z,1.62
2023-01-08T08:56:58.364Z,1.66
2023-01-08T08:57:58.364Z,1.68
2023-01-08T08:58:58.377Z,1.73
2023-01-08T09:00:00.907Z,1.69
2023-01-08T09:00:58.291Z,1.83
2023-01-08T09:01:58.437Z,1.80
2023-01-08T09:02:58.495Z,1.84
2023-01-08T09:03:58.293Z,1.88
2023-01-08T09:04:58.317Z,1.87
2023-01-08T09:05:59.839Z,1.86
2023-01-08T09:06:58.226Z,1.90
2023-01-08T09:07:58.228Z,1.88
2023-01-08T09:08:58.218Z,1.93
2023-01-08T09:09:58.225Z,1.91
2023-01-08T09:10:58.185Z,1.95
2023-01-08T09:11:58.200Z,1.98
2023-01-08T09:12:58.167Z,1.98
2023-01-08T09:13:58.168Z,2.02
2023-01-08T09:14:58.164Z,2.00
2023-01-08T09:15:58.227Z,2.03
2023-01-08T09:16:58.153Z,2.07
2023-01-08T09:17:58.114Z,2.14
2023-01-08T09:18:58.108Z,2.12
2023-01-08T09:19:58.128Z,2.27
2023-01-08T09:20:58.093Z,2.27
2023-01-08T09:21:58.112Z,2.30
2023-01-08T09:22:58.050Z,2.35
2023-01-08T09:23:58.060Z,2.46
2023-01-08T09:24:58.040Z,2.48
2023-01-08T09:25:58.018Z,2.43
2023-01-08T09:26:58.018Z,2.49
2023-01-08T09:27:58.119Z,2.57
2023-01-08T09:28:57.998Z,2.53
2023-01-08T09:29:57.975Z,2.61
2023-01-08T09:30:57.999Z,2.59
2023-01-08T09:31:58.026Z,2.71
2023-01-08T09:32:59.262Z,2.69
2023-01-08T09:33:57.943Z,2.69
2023-01-08T09:34:57.922Z,2.71
2023-01-08T09:35:57.931Z,2.72
2023-01-08T09:36:57.952Z,2.77
2023-01-08T09:37:57.897Z,2.74
2023-01-08T09:38:57.895Z,2.90
2023-01-08T09:40:02.626Z,2.79
2023-01-08T09:40:58.870Z,2.81
2023-01-08T09:41:57.851Z,2.85
2023-01-08T09:42:57.864Z,2.79
2023-01-08T09:43:57.950Z,2.85
2023-01-08T09:44:57.805Z,2.82
2023-01-08T09:45:57.817Z,2.89
2023-01-08T09:46:57.881Z,2.97
2023-01-08T09:47:57.793Z,2.87
2023-01-08T09:48:57.797Z,2.89
2023-01-08T09:49:57.761Z,2.97
2023-01-08T09:50:57.739Z,2.85
2023-01-08T09:51:57.726Z,2.92
2023-01-08T09:52:57.799Z,2.95
2023-01-08T09:53:57.720Z,3.00
2023-01-08T09:54:57.737Z,3.08
2023-01-08T09:56:09.084Z,3.08
2023-01-08T09:56:58.672Z,3.15
2023-01-08T09:57:57.687Z,3.20
2023-01-08T09:58:57.703Z,3.26
2023-01-08T09:59:57.783Z,3.31
2023-01-08T10:00:57.721Z,3.35
2023-01-08T10:01:57.798Z,3.32
2023-01-08T10:02:57.781Z,3.32
2023-01-08T10:03:57.633Z,3.40
2023-01-08T10:04:57.604Z,3.32
2023-01-08T10:05:57.631Z,3.48
2023-01-08T10:06:57.610Z,3.51
2023-01-08T10:07:57.557Z,3.61
2023-01-08T10:08:57.563Z,3.57
2023-01-08T10:09:57.531Z,3.69
2023-01-08T10:10:57.540Z,3.68
2023-01-08T10:11:57.558Z,3.79
2023-01-08T10:12:57.541Z,3.72
2023-01-08T10:13:57.479Z,3.76
2023-01-08T10:14:57.475Z,3.86
2023-01-08T10:15:57.654Z,3.83
2023-01-08T10:16:57.483Z,3.84
2023-01-08T10:17:57.485Z,3.88
2023-01-08T10:18:57.453Z,3.98
2023-01-08T10:19:57.419Z,3.96
2023-01-08T10:20:57.409Z,3.98
2023-01-08T10:21:57.410Z,4.05
2023-01-08T10:22:57.410Z,4.05
2023-01-08T10:23:57.437Z,4.06
2023-01-08T10:24:57.363Z,4.18
2023-01-08T10:25:57.359Z,4.14
2023-01-08T10:26:57.492Z,4.15
2023-01-08T10:27:57.352Z,4.16
2023-01-08T10:28:57.325Z,4.29
2023-01-08T10:29:57.328Z,4.29
2023-01-08T10:30:57.317Z,4.32
2023-01-08T10:31:57.301Z,4.45
2023-01-08T10:32:57.334Z,4.44
2023-01-08T10:33:57.298Z,4.37
2023-01-08T10:34:57.265Z,4.54
2023-01-08T10:35:57.246Z,4.63
2023-01-08T10:36:57.227Z,4.63
2023-01-08T10:37:57.221Z,4.80
2023-01-08T10:38:57.222Z,4.78
2023-01-08T10:39:57.197Z,4.88
2023-01-08T10:40:57.199Z,5.02
2023-01-08T10:41:57.183Z,5.04
2023-01-08T10:42:57.168Z,5.10
2023-01-08T10:43:57.225Z,5.20
2023-01-08T10:44:57.177Z,5.18
2023-01-08T10:45:57.246Z,5.35
2023-01-08T10:46:57.159Z,5.33
2023-01-08T10:47:57.227Z,5.36
2023-01-08T10:48:57.100Z,5.43
2023-01-08T10:49:57.137Z,5.51
2023-01-08T10:50:57.099Z,5.51
2023-01-08T10:51:57.074Z,5.60
2023-01-08T10:52:57.049Z,5.60
2023-01-08T10:53:57.041Z,5.63
2023-01-08T10:54:57.027Z,5.72
2023-01-08T10:55:57.040Z,5.74
2023-01-08T10:56:57.042Z,5.76
2023-01-08T10:57:57.008Z,5.83
2023-01-08T10:58:57.032Z,5.79
2023-01-08T10:59:56.973Z,5.79
2023-01-08T11:00:57.007Z,5.83
2023-01-08T11:01:57.084Z,5.79
2023-01-08T11:02:56.983Z,5.86
2023-01-08T11:03:56.944Z,5.83
2023-01-08T11:04:57.062Z,5.78
2023-01-08T11:05:56.903Z,5.81
2023-01-08T11:06:56.905Z,5.82
2023-01-08T11:07:56.904Z,5.78
2023-01-08T11:08:56.904Z,5.78
2023-01-08T11:09:56.917Z,5.72
2023-01-08T11:10:56.862Z,5.82
2023-01-08T11:11:56.836Z,5.78
2023-01-08T11:12:56.867Z,5.78
2023-01-08T11:13:56.850Z,5.83
2023-01-08T11:14:56.823Z,5.75
2023-01-08T11:15:56.844Z,5.82
2023-01-08T11:16:56.787Z,5.89
2023-01-08T11:17:56.776Z,5.89
2023-01-08T11:18:56.785Z,5.86
2023-01-08T11:19:56.806Z,5.96
2023-01-08T11:20:56.761Z,5.91
2023-01-08T11:21:56.727Z,5.91
2023-01-08T11:22:56.728Z,6.04
2023-01-08T11:23:56.716Z,6.11
2023-01-08T11:24:56.693Z,6.09
2023-01-08T11:25:56.698Z,6.12
2023-01-08T11:26:56.669Z,6.12
2023-01-08T11:27:56.675Z,6.12
2023-01-08T11:28:56.653Z,6.17
2023-01-08T11:29:56.649Z,6.15
2023-01-08T11:30:56.639Z,6.14
2023-01-08T11:31:56.661Z,6.14
2023-01-08T11:32:56.602Z,6.27
2023-01-08T11:33:56.615Z,6.22
2023-01-08T11:34:56.584Z,6.30
2023-01-08T11:35:56.613Z,6.28
2023-01-08T11:36:56.569Z,6.34
2023-01-08T11:37:56.583Z,6.34
2023-01-08T11:38:56.534Z,6.43
2023-01-08T11:39:56.577Z,6.46
2023-01-08T11:40:56.528Z,6.41
2023-01-08T11:41:56.502Z,6.61
2023-01-08T11:42:56.506Z,6.49
2023-01-08T11:43:56.481Z,6.56
2023-01-08T11:44:56.470Z,6.62
2023-01-08T11:45:56.532Z,6.66
2023-01-08T11:46:56.469Z,6.70
2023-01-08T11:47:56.438Z,6.69
2023-01-08T11:48:56.432Z,6.70
2023-01-08T11:49:56.426Z,6.77
2023-01-08T11:50:56.423Z,6.87
2023-01-08T11:51:56.426Z,6.80
2023-01-08T11:52:56.414Z,6.77
2023-01-08T11:53:56.377Z,6.81
2023-01-08T11:54:56.527Z,6.91
2023-01-08T11:55:56.383Z,6.89
2023-01-08T11:56:56.334Z,6.89
2023-01-08T11:57:56.334Z,6.87
2023-01-08T11:58:56.313Z,6.89
2023-01-08T11:59:56.334Z,6.88
2023-01-08T12:00:56.292Z,6.92
2023-01-08T12:01:56.434Z,6.99
2023-01-08T12:02:56.327Z,6.97
2023-01-08T12:03:56.273Z,6.98
2023-01-08T12:04:56.274Z,7.09
2023-01-08T12:05:56.284Z,7.02
2023-01-08T12:06:56.232Z,7.06
2023-01-08T12:07:56.242Z,7.02
2023-01-08T12:08:56.204Z,7.20
2023-01-08T12:09:56.215Z,7.12
2023-01-08T12:10:56.191Z,7.15
2023-01-08T12:11:56.217Z,7.20
2023-01-08T12:12:56.161Z,7.15
2023-01-08T12:13:56.148Z,7.23
2023-01-08T12:14:56.142Z,7.23
2023-01-08T12:15:56.156Z,7.27
2023-01-08T12:16:56.128Z,7.30
2023-01-08T12:17:56.163Z,7.23
2023-01-08T12:18:56.091Z,7.25
2023-01-08T12:19:56.113Z,7.23
2023-01-08T12:20:56.083Z,7.30
2023-01-08T12:21:56.069Z,7.28
2023-01-08T12:22:56.054Z,7.30
2023-01-08T12:23:56.059Z,7.30
2023-01-08T12:24:56.044Z,7.30
2023-01-08T12:25:56.042Z,7.25
2023-01-08T12:26:56.018Z,7.27
2023-01-08T12:27:57.423Z,7.34
2023-01-08T12:28:56.005Z,7.23
2023-01-08T12:29:55.974Z,7.30
2023-01-08T12:30:55.957Z,7.27
2023-01-08T12:32:02.569Z,7.34
2023-01-08T12:32:56.943Z,7.37
2023-01-08T12:33:55.939Z,7.32
2023-01-08T12:34:55.945Z,7.34
2023-01-08T12:35:55.905Z,7.34
2023-01-08T12:36:55.908Z,7.35
2023-01-08T12:37:55.903Z,7.35
2023-01-08T12:38:55.895Z,7.42
2023-01-08T12:39:55.891Z,7.34
2023-01-08T12:40:55.845Z,7.40
2023-01-08T12:41:55.837Z,7.40
2023-01-08T12:43:01.075Z,7.42
2023-01-08T12:43:56.853Z,7.46
2023-01-08T12:44:55.839Z,7.37
2023-01-08T12:45:55.879Z,7.45
2023-01-08T12:46:55.779Z,7.50
2023-01-08T12:47:55.775Z,7.42
2023-01-08T12:48:55.764Z,7.45
2023-01-08T12:49:55.782Z,7.42
2023-01-08T12:50:55.747Z,7.39
2023-01-08T12:51:55.755Z,7.39
2023-01-08T12:52:55.719Z,7.35
2023-01-08T12:53:55.705Z,7.32
2023-01-08T12:54:55.698Z,7.39
2023-01-08T12:55:55.730Z,7.32
2023-01-08T12:56:55.673Z,7.31
2023-01-08T12:57:55.657Z,7.30
2023-01-08T12:58:55.667Z,7.30
2023-01-08T12:59:55.658Z,7.25
2023-01-08T13:00:55.660Z,7.37
2023-01-08T13:01:55.879Z,7.37
2023-01-08T13:02:55.656Z,7.31
2023-01-08T13:03:55.635Z,7.34
2023-01-08T13:04:55.580Z,7.37
2023-01-08T13:05:55.572Z,7.34
2023-01-08T13:06:55.592Z,7.34
2023-01-08T13:07:55.589Z,7.34